sensor_id;sensor_type;location;lat;lon;timestamp;temperature;humidity
77277;DHT22;66330;52.166;9.978;2023-02-26T00:01:03;1.20;61.10
77277;DHT22;66330;52.166;9.978;2023-02-26T00:03:36;1.10;61.10
77277;DHT22;66330;52.166;9.978;2023-02-26T00:06:01;1.10;61.20
77277;DHT22;66330;52.166;9.978;2023-02-26T00:08:27;1.00;61.10
77277;DHT22;66330;52.166;9.978;2023-02-26T00:10:56;1.20;61.50
77277;DHT22;66330;52.166;9.978;2023-02-26T00:13:22;0.90;61.40
77277;DHT22;66330;52.166;9.978;2023-02-26T00:15:50;1.30;62.00
77277;DHT22;66330;52.166;9.978;2023-02-26T00:18:20;0.90;61.90
77277;DHT22;66330;52.166;9.978;2023-02-26T00:20:46;0.90;62.20
77277;DHT22;66330;52.166;9.978;2023-02-26T00:23:12;1.20;63.40
77277;DHT22;66330;52.166;9.978;2023-02-26T00:25:39;1.10;62.70
77277;DHT22;66330;52.166;9.978;2023-02-26T00:28:06;1.20;62.90
77277;DHT22;66330;52.166;9.978;2023-02-26T00:30:32;1.30;63.10
77277;DHT22;66330;52.166;9.978;2023-02-26T00:32:58;1.60;63.40
77277;DHT22;66330;52.166;9.978;2023-02-26T00:35:24;1.40;63.00
77277;DHT22;66330;52.166;9.978;2023-02-26T00:38:04;1.80;62.80
77277;DHT22;66330;52.166;9.978;2023-02-26T00:40:44;1.80;63.30
77277;DHT22;66330;52.166;9.978;2023-02-26T00:43:16;1.90;63.30
77277;DHT22;66330;52.166;9.978;2023-02-26T00:49:02;1.80;63.00
77277;DHT22;66330;52.166;9.978;2023-02-26T00:51:52;2.00;63.00
77277;DHT22;66330;52.166;9.978;2023-02-26T00:54:22;2.20;63.20
77277;DHT22;66330;52.166;9.978;2023-02-26T00:56:49;2.10;62.90
77277;DHT22;66330;52.166;9.978;2023-02-26T00:59:16;2.00;62.70
77277;DHT22;66330;52.166;9.978;2023-02-26T01:01:42;2.30;63.00
77277;DHT22;66330;52.166;9.978;2023-02-26T01:04:09;2.10;62.70
77277;DHT22;66330;52.166;9.978;2023-02-26T01:06:43;2.30;62.00
77277;DHT22;66330;52.166;9.978;2023-02-26T01:11:43;2.40;62.80
77277;DHT22;66330;52.166;9.978;2023-02-26T01:14:09;2.50;61.50
77277;DHT22;66330;52.166;9.978;2023-02-26T01:16:43;2.20;62.30
77277;DHT22;66330;52.166;9.978;2023-02-26T01:21:50;2.20;62.60
77277;DHT22;66330;52.166;9.978;2023-02-26T01:24:19;2.80;61.90
77277;DHT22;66330;52.166;9.978;2023-02-26T01:26:46;2.50;62.80
77277;DHT22;66330;52.166;9.978;2023-02-26T01:29:14;2.40;62.80
77277;DHT22;66330;52.166;9.978;2023-02-26T01:32:04;2.20;62.60
77277;DHT22;66330;52.166;9.978;2023-02-26T01:37:20;2.10;63.20
77277;DHT22;66330;52.166;9.978;2023-02-26T01:42:25;2.20;62.90
77277;DHT22;66330;52.166;9.978;2023-02-26T01:44:57;2.20;63.00
77277;DHT22;66330;52.166;9.978;2023-02-26T01:47:32;2.30;63.30
77277;DHT22;66330;52.166;9.978;2023-02-26T01:50:32;2.30;63.50
77277;DHT22;66330;52.166;9.978;2023-02-26T01:53:19;1.90;63.20
77277;DHT22;66330;52.166;9.978;2023-02-26T01:55:49;2.20;63.50
77277;DHT22;66330;52.166;9.978;2023-02-26T01:58:15;1.90;63.30
77277;DHT22;66330;52.166;9.978;2023-02-26T02:00:41;1.90;63.40
77277;DHT22;66330;52.166;9.978;2023-02-26T02:03:07;1.90;63.40
77277;DHT22;66330;52.166;9.978;2023-02-26T02:05:42;1.90;63.50
77277;DHT22;66330;52.166;9.978;2023-02-26T02:08:10;2.20;63.90
77277;DHT22;66330;52.166;9.978;2023-02-26T02:10:40;1.90;63.60
77277;DHT22;66330;52.166;9.978;2023-02-26T02:15:45;1.70;63.60
77277;DHT22;66330;52.166;9.978;2023-02-26T02:20:58;2.10;64.40
77277;DHT22;66330;52.166;9.978;2023-02-26T02:23:34;2.10;64.30
77277;DHT22;66330;52.166;9.978;2023-02-26T02:35:31;1.90;64.50
77277;DHT22;66330;52.166;9.978;2023-02-26T02:38:10;1.70;64.50
77277;DHT22;66330;52.166;9.978;2023-02-26T02:40:41;1.80;64.80
77277;DHT22;66330;52.166;9.978;2023-02-26T02:43:30;1.40;63.70
77277;DHT22;66330;52.166;9.978;2023-02-26T02:46:03;1.40;64.80
77277;DHT22;66330;52.166;9.978;2023-02-26T02:48:40;1.30;65.00
77277;DHT22;66330;52.166;9.978;2023-02-26T02:51:16;1.60;66.20
77277;DHT22;66330;52.166;9.978;2023-02-26T02:53:52;1.30;65.30
77277;DHT22;66330;52.166;9.978;2023-02-26T02:56:24;1.40;65.60
77277;DHT22;66330;52.166;9.978;2023-02-26T02:58:56;1.50;65.90
77277;DHT22;66330;52.166;9.978;2023-02-26T03:01:24;1.50;66.10
77277;DHT22;66330;52.166;9.978;2023-02-26T03:04:18;1.20;65.90
77277;DHT22;66330;52.166;9.978;2023-02-26T03:06:45;1.30;66.90
77277;DHT22;66330;52.166;9.978;2023-02-26T03:09:14;1.60;66.50
77277;DHT22;66330;52.166;9.978;2023-02-26T03:11:40;1.60;66.70
77277;DHT22;66330;52.166;9.978;2023-02-26T03:14:06;1.30;66.50
77277;DHT22;66330;52.166;9.978;2023-02-26T03:22:06;1.50;66.90
77277;DHT22;66330;52.166;9.978;2023-02-26T03:29:56;1.60;67.00
77277;DHT22;66330;52.166;9.978;2023-02-26T03:35:10;1.60;67.10
77277;DHT22;66330;52.166;9.978;2023-02-26T03:37:45;1.80;67.50
77277;DHT22;66330;52.166;9.978;2023-02-26T03:40:17;1.50;67.10
77277;DHT22;66330;52.166;9.978;2023-02-26T03:42:53;1.80;67.40
77277;DHT22;66330;52.166;9.978;2023-02-26T03:45:29;2.10;67.80
77277;DHT22;66330;52.166;9.978;2023-02-26T03:47:57;1.70;67.10
77277;DHT22;66330;52.166;9.978;2023-02-26T03:50:47;1.70;67.40
77277;DHT22;66330;52.166;9.978;2023-02-26T03:53:26;2.00;67.70
77277;DHT22;66330;52.166;9.978;2023-02-26T03:56:15;2.00;67.70
77277;DHT22;66330;52.166;9.978;2023-02-26T03:58:43;1.50;67.30
77277;DHT22;66330;52.166;9.978;2023-02-26T04:01:15;1.50;67.30
77277;DHT22;66330;52.166;9.978;2023-02-26T04:06:23;1.80;67.60
77277;DHT22;66330;52.166;9.978;2023-02-26T04:08:50;1.70;67.50
77277;DHT22;66330;52.166;9.978;2023-02-26T04:11:18;1.80;67.50
77277;DHT22;66330;52.166;9.978;2023-02-26T04:13:45;1.80;67.60
77277;DHT22;66330;52.166;9.978;2023-02-26T04:16:11;1.90;67.70
77277;DHT22;66330;52.166;9.978;2023-02-26T04:18:37;1.80;67.60
77277;DHT22;66330;52.166;9.978;2023-02-26T04:21:03;1.90;67.70
77277;DHT22;66330;52.166;9.978;2023-02-26T04:23:29;2.10;67.90
77277;DHT22;66330;52.166;9.978;2023-02-26T04:25:54;2.10;67.80
77277;DHT22;66330;52.166;9.978;2023-02-26T04:28:20;2.10;68.00
77277;DHT22;66330;52.166;9.978;2023-02-26T04:30:46;1.90;67.60
77277;DHT22;66330;52.166;9.978;2023-02-26T04:33:12;2.20;67.90
77277;DHT22;66330;52.166;9.978;2023-02-26T04:35:38;2.20;67.90
77277;DHT22;66330;52.166;9.978;2023-02-26T04:38:04;2.10;67.70
77277;DHT22;66330;52.166;9.978;2023-02-26T04:40:30;2.00;67.20
77277;DHT22;66330;52.166;9.978;2023-02-26T04:42:55;2.20;67.80
77277;DHT22;66330;52.166;9.978;2023-02-26T04:45:21;2.00;67.60
77277;DHT22;66330;52.166;9.978;2023-02-26T04:47:47;2.20;67.80
77277;DHT22;66330;52.166;9.978;2023-02-26T04:50:13;2.00;67.60
77277;DHT22;66330;52.166;9.978;2023-02-26T04:52:38;2.10;67.60
77277;DHT22;66330;52.166;9.978;2023-02-26T04:55:04;2.00;67.50
77277;DHT22;66330;52.166;9.978;2023-02-26T04:57:31;2.00;67.50
77277;DHT22;66330;52.166;9.978;2023-02-26T04:59:57;2.10;67.60
77277;DHT22;66330;52.166;9.978;2023-02-26T05:02:23;2.00;67.40
77277;DHT22;66330;52.166;9.978;2023-02-26T05:04:48;1.60;67.00
77277;DHT22;66330;52.166;9.978;2023-02-26T05:07:14;2.20;67.60
77277;DHT22;66330;52.166;9.978;2023-02-26T05:09:39;2.10;67.40
77277;DHT22;66330;52.166;9.978;2023-02-26T05:12:05;2.10;67.40
77277;DHT22;66330;52.166;9.978;2023-02-26T05:14:31;2.40;68.40
77277;DHT22;66330;52.166;9.978;2023-02-26T05:16:56;2.00;67.10
77277;DHT22;66330;52.166;9.978;2023-02-26T05:19:22;2.50;67.60
77277;DHT22;66330;52.166;9.978;2023-02-26T05:21:48;2.10;67.20
77277;DHT22;66330;52.166;9.978;2023-02-26T05:24:15;2.10;67.10
77277;DHT22;66330;52.166;9.978;2023-02-26T05:26:41;2.00;67.00
77277;DHT22;66330;52.166;9.978;2023-02-26T05:29:06;2.40;67.40
77277;DHT22;66330;52.166;9.978;2023-02-26T05:31:32;2.00;67.00
77277;DHT22;66330;52.166;9.978;2023-02-26T05:33:57;2.30;67.30
77277;DHT22;66330;52.166;9.978;2023-02-26T05:36:23;2.00;66.50
77277;DHT22;66330;52.166;9.978;2023-02-26T05:38:49;2.30;67.20
77277;DHT22;66330;52.166;9.978;2023-02-26T05:41:15;2.40;67.30
77277;DHT22;66330;52.166;9.978;2023-02-26T05:43:41;2.00;66.80
77277;DHT22;66330;52.166;9.978;2023-02-26T05:46:06;2.10;66.90
77277;DHT22;66330;52.166;9.978;2023-02-26T05:48:32;2.20;66.90
77277;DHT22;66330;52.166;9.978;2023-02-26T05:50:58;2.10;66.10
77277;DHT22;66330;52.166;9.978;2023-02-26T05:53:24;2.10;66.70
77277;DHT22;66330;52.166;9.978;2023-02-26T05:55:52;2.30;66.10
77277;DHT22;66330;52.166;9.978;2023-02-26T05:58:18;2.10;66.60
77277;DHT22;66330;52.166;9.978;2023-02-26T06:00:45;2.10;66.50
77277;DHT22;66330;52.166;9.978;2023-02-26T06:03:10;2.20;66.60
77277;DHT22;66330;52.166;9.978;2023-02-26T06:05:36;2.40;66.60
77277;DHT22;66330;52.166;9.978;2023-02-26T06:08:02;2.00;66.10
77277;DHT22;66330;52.166;9.978;2023-02-26T06:10:28;2.10;66.20
77277;DHT22;66330;52.166;9.978;2023-02-26T06:12:53;2.00;66.10
77277;DHT22;66330;52.166;9.978;2023-02-26T06:15:19;2.20;66.40
77277;DHT22;66330;52.166;9.978;2023-02-26T06:17:46;2.00;66.10
77277;DHT22;66330;52.166;9.978;2023-02-26T06:20:12;1.80;65.90
77277;DHT22;66330;52.166;9.978;2023-02-26T06:22:38;1.80;65.80
77277;DHT22;66330;52.166;9.978;2023-02-26T06:25:04;1.90;66.00
77277;DHT22;66330;52.166;9.978;2023-02-26T06:27:30;1.90;65.90
77277;DHT22;66330;52.166;9.978;2023-02-26T06:29:56;2.30;66.20
77277;DHT22;66330;52.166;9.978;2023-02-26T06:32:21;2.20;66.20
77277;DHT22;66330;52.166;9.978;2023-02-26T06:34:47;2.00;65.70
77277;DHT22;66330;52.166;9.978;2023-02-26T06:37:13;2.00;65.70
77277;DHT22;66330;52.166;9.978;2023-02-26T06:39:39;2.30;65.90
77277;DHT22;66330;52.166;9.978;2023-02-26T06:42:04;2.30;65.80
77277;DHT22;66330;52.166;9.978;2023-02-26T06:44:30;2.40;65.80
77277;DHT22;66330;52.166;9.978;2023-02-26T06:46:55;2.10;65.50
77277;DHT22;66330;52.166;9.978;2023-02-26T06:49:21;2.40;65.70
77277;DHT22;66330;52.166;9.978;2023-02-26T06:51:47;2.10;65.30
77277;DHT22;66330;52.166;9.978;2023-02-26T06:54:12;2.20;65.40
77277;DHT22;66330;52.166;9.978;2023-02-26T06:56:38;2.40;65.80
77277;DHT22;66330;52.166;9.978;2023-02-26T06:59:04;2.50;66.10
77277;DHT22;66330;52.166;9.978;2023-02-26T07:01:29;2.70;66.00
77277;DHT22;66330;52.166;9.978;2023-02-26T07:03:56;2.90;65.80
77277;DHT22;66330;52.166;9.978;2023-02-26T07:06:22;3.10;65.20
77277;DHT22;66330;52.166;9.978;2023-02-26T07:08:48;3.30;65.10
77277;DHT22;66330;52.166;9.978;2023-02-26T07:11:13;3.80;65.20
77277;DHT22;66330;52.166;9.978;2023-02-26T07:13:39;4.30;65.20
77277;DHT22;66330;52.166;9.978;2023-02-26T07:16:05;4.40;64.30
77277;DHT22;66330;52.166;9.978;2023-02-26T07:18:35;4.70;63.40
77277;DHT22;66330;52.166;9.978;2023-02-26T07:21:02;5.10;62.50
77277;DHT22;66330;52.166;9.978;2023-02-26T07:23:28;5.30;61.60
77277;DHT22;66330;52.166;9.978;2023-02-26T07:25:54;5.50;60.90
77277;DHT22;66330;52.166;9.978;2023-02-26T07:28:22;5.70;60.20
77277;DHT22;66330;52.166;9.978;2023-02-26T07:30:48;5.90;59.70
77277;DHT22;66330;52.166;9.978;2023-02-26T07:33:13;6.20;58.90
77277;DHT22;66330;52.166;9.978;2023-02-26T07:35:39;6.30;58.60
77277;DHT22;66330;52.166;9.978;2023-02-26T07:38:05;6.30;57.10
77277;DHT22;66330;52.166;9.978;2023-02-26T07:40:31;6.10;57.00
77277;DHT22;66330;52.166;9.978;2023-02-26T07:42:57;5.90;56.80
77277;DHT22;66330;52.166;9.978;2023-02-26T07:45:23;6.30;57.30
77277;DHT22;66330;52.166;9.978;2023-02-26T07:47:50;5.60;56.90
77277;DHT22;66330;52.166;9.978;2023-02-26T07:50:17;5.30;56.90
77277;DHT22;66330;52.166;9.978;2023-02-26T07:52:43;5.40;57.30
77277;DHT22;66330;52.166;9.978;2023-02-26T07:55:11;5.30;57.40
77277;DHT22;66330;52.166;9.978;2023-02-26T07:57:36;5.20;57.30
77277;DHT22;66330;52.166;9.978;2023-02-26T08:00:04;5.10;57.40
77277;DHT22;66330;52.166;9.978;2023-02-26T08:02:29;4.90;57.30
77277;DHT22;66330;52.166;9.978;2023-02-26T08:04:55;5.00;56.90
77277;DHT22;66330;52.166;9.978;2023-02-26T08:07:21;5.00;57.90
77277;DHT22;66330;52.166;9.978;2023-02-26T08:09:47;5.30;58.50
77277;DHT22;66330;52.166;9.978;2023-02-26T08:12:13;5.50;57.70
77277;DHT22;66330;52.166;9.978;2023-02-26T08:14:38;5.90;58.30
77277;DHT22;66330;52.166;9.978;2023-02-26T08:17:07;6.30;57.90
77277;DHT22;66330;52.166;9.978;2023-02-26T08:19:32;6.60;57.50
77277;DHT22;66330;52.166;9.978;2023-02-26T08:21:59;6.90;57.00
77277;DHT22;66330;52.166;9.978;2023-02-26T08:24:25;7.20;56.60
77277;DHT22;66330;52.166;9.978;2023-02-26T08:26:51;7.40;56.00
77277;DHT22;66330;52.166;9.978;2023-02-26T08:29:16;7.60;55.70
77277;DHT22;66330;52.166;9.978;2023-02-26T08:31:42;7.70;55.30
77277;DHT22;66330;52.166;9.978;2023-02-26T08:34:08;7.80;55.10
77277;DHT22;66330;52.166;9.978;2023-02-26T08:36:34;8.00;55.00
77277;DHT22;66330;52.166;9.978;2023-02-26T08:39:00;8.40;55.10
77277;DHT22;66330;52.166;9.978;2023-02-26T08:41:26;8.30;54.90
77277;DHT22;66330;52.166;9.978;2023-02-26T08:43:54;8.40;54.50
77277;DHT22;66330;52.166;9.978;2023-02-26T08:46:20;8.50;53.90
77277;DHT22;66330;52.166;9.978;2023-02-26T08:48:46;8.40;53.20
77277;DHT22;66330;52.166;9.978;2023-02-26T08:51:12;8.50;52.80
77277;DHT22;66330;52.166;9.978;2023-02-26T08:53:38;8.20;52.40
77277;DHT22;66330;52.166;9.978;2023-02-26T08:56:04;8.10;52.60
77277;DHT22;66330;52.166;9.978;2023-02-26T08:58:30;8.30;53.20
77277;DHT22;66330;52.166;9.978;2023-02-26T09:00:56;8.50;53.20
77277;DHT22;66330;52.166;9.978;2023-02-26T09:03:23;8.60;52.90
77277;DHT22;66330;52.166;9.978;2023-02-26T09:05:50;8.70;52.40
77277;DHT22;66330;52.166;9.978;2023-02-26T09:08:17;8.80;52.10
77277;DHT22;66330;52.166;9.978;2023-02-26T09:10:44;8.80;51.80
77277;DHT22;66330;52.166;9.978;2023-02-26T09:13:10;8.80;51.60
77277;DHT22;66330;52.166;9.978;2023-02-26T09:15:36;8.70;51.10
77277;DHT22;66330;52.166;9.978;2023-02-26T09:18:01;8.60;50.80
77277;DHT22;66330;52.166;9.978;2023-02-26T09:20:27;8.50;50.70
77277;DHT22;66330;52.166;9.978;2023-02-26T09:22:53;8.30;50.70
77277;DHT22;66330;52.166;9.978;2023-02-26T09:25:19;8.20;51.10
77277;DHT22;66330;52.166;9.978;2023-02-26T09:27:44;8.20;50.90
77277;DHT22;66330;52.166;9.978;2023-02-26T09:30:10;8.30;51.80
77277;DHT22;66330;52.166;9.978;2023-02-26T09:32:36;8.50;52.20
77277;DHT22;66330;52.166;9.978;2023-02-26T09:35:03;8.60;52.40
77277;DHT22;66330;52.166;9.978;2023-02-26T09:37:30;8.70;52.10
77277;DHT22;66330;52.166;9.978;2023-02-26T09:39:55;8.90;52.10
77277;DHT22;66330;52.166;9.978;2023-02-26T09:44:50;9.00;51.90
77277;DHT22;66330;52.166;9.978;2023-02-26T09:47:38;9.50;51.90
77277;DHT22;66330;52.166;9.978;2023-02-26T09:50:23;9.70;51.80
77277;DHT22;66330;52.166;9.978;2023-02-26T09:58:03;10.40;50.30
77277;DHT22;66330;52.166;9.978;2023-02-26T10:05:59;10.50;48.00
77277;DHT22;66330;52.166;9.978;2023-02-26T10:08:40;10.40;47.20
77277;DHT22;66330;52.166;9.978;2023-02-26T10:11:23;10.30;47.00
77277;DHT22;66330;52.166;9.978;2023-02-26T10:14:04;10.30;46.70
77277;DHT22;66330;52.166;9.978;2023-02-26T10:16:36;10.30;47.10
77277;DHT22;66330;52.166;9.978;2023-02-26T10:19:13;10.30;47.00
77277;DHT22;66330;52.166;9.978;2023-02-26T10:21:56;10.30;46.90
77277;DHT22;66330;52.166;9.978;2023-02-26T10:24:39;10.30;46.50
77277;DHT22;66330;52.166;9.978;2023-02-26T10:27:30;10.40;46.30
77277;DHT22;66330;52.166;9.978;2023-02-26T10:30:10;10.50;46.10
77277;DHT22;66330;52.166;9.978;2023-02-26T10:32:42;11.50;47.00
77277;DHT22;66330;52.166;9.978;2023-02-26T10:35:14;12.50;46.70
77277;DHT22;66330;52.166;9.978;2023-02-26T10:37:58;13.50;46.00
77277;DHT22;66330;52.166;9.978;2023-02-26T10:40:36;14.50;45.00
77277;DHT22;66330;52.166;9.978;2023-02-26T10:43:21;15.20;43.50
77277;DHT22;66330;52.166;9.978;2023-02-26T10:51:17;17.00;40.00
77277;DHT22;66330;52.166;9.978;2023-02-26T10:53:48;17.00;38.90
77277;DHT22;66330;52.166;9.978;2023-02-26T10:56:26;17.20;38.90
77277;DHT22;66330;52.166;9.978;2023-02-26T10:58:54;17.40;37.80
77277;DHT22;66330;52.166;9.978;2023-02-26T11:01:22;18.10;37.80
77277;DHT22;66330;52.166;9.978;2023-02-26T11:04:13;18.70;37.50
77277;DHT22;66330;52.166;9.978;2023-02-26T11:06:45;19.70;36.60
77277;DHT22;66330;52.166;9.978;2023-02-26T11:12:03;21.30;35.80
77277;DHT22;66330;52.166;9.978;2023-02-26T11:14:31;22.10;35.00
77277;DHT22;66330;52.166;9.978;2023-02-26T11:17:01;23.00;35.00
77277;DHT22;66330;52.166;9.978;2023-02-26T11:19:35;23.50;33.70
77277;DHT22;66330;52.166;9.978;2023-02-26T11:22:03;23.90;33.40
77277;DHT22;66330;52.166;9.978;2023-02-26T11:24:36;24.40;32.60
77277;DHT22;66330;52.166;9.978;2023-02-26T11:27:10;24.80;30.60
77277;DHT22;66330;52.166;9.978;2023-02-26T11:29:40;25.20;30.00
77277;DHT22;66330;52.166;9.978;2023-02-26T11:32:12;25.20;29.40
77277;DHT22;66330;52.166;9.978;2023-02-26T11:34:46;24.50;28.70
77277;DHT22;66330;52.166;9.978;2023-02-26T11:37:17;24.40;28.50
77277;DHT22;66330;52.166;9.978;2023-02-26T11:39:44;24.60;28.60
77277;DHT22;66330;52.166;9.978;2023-02-26T11:42:11;25.10;29.10
77277;DHT22;66330;52.166;9.978;2023-02-26T11:44:42;25.20;28.60
77277;DHT22;66330;52.166;9.978;2023-02-26T11:47:23;24.80;27.90
77277;DHT22;66330;52.166;9.978;2023-02-26T11:49:52;24.80;27.90
77277;DHT22;66330;52.166;9.978;2023-02-26T11:52:22;25.10;28.30
77277;DHT22;66330;52.166;9.978;2023-02-26T11:54:58;25.50;28.00
77277;DHT22;66330;52.166;9.978;2023-02-26T11:57:26;25.50;26.90
77277;DHT22;66330;52.166;9.978;2023-02-26T11:59:55;24.80;26.60
77277;DHT22;66330;52.166;9.978;2023-02-26T12:02:23;24.10;25.90
77277;DHT22;66330;52.166;9.978;2023-02-26T12:04:54;23.10;25.80
77277;DHT22;66330;52.166;9.978;2023-02-26T12:07:21;22.90;26.80
77277;DHT22;66330;52.166;9.978;2023-02-26T12:09:48;22.70;26.90
77277;DHT22;66330;52.166;9.978;2023-02-26T12:15:03;22.70;27.10
77277;DHT22;66330;52.166;9.978;2023-02-26T12:17:34;23.30;27.30
77277;DHT22;66330;52.166;9.978;2023-02-26T12:56:43;25.80;24.20
77277;DHT22;66330;52.166;9.978;2023-02-26T13:07:48;25.80;23.30
77277;DHT22;66330;52.166;9.978;2023-02-26T13:13:03;25.70;23.60
77277;DHT22;66330;52.166;9.978;2023-02-26T13:21:58;24.60;23.10
77277;DHT22;66330;52.166;9.978;2023-02-26T13:24:39;24.40;22.90
77277;DHT22;66330;52.166;9.978;2023-02-26T13:27:08;24.10;23.20
77277;DHT22;66330;52.166;9.978;2023-02-26T13:29:40;24.30;23.80
77277;DHT22;66330;52.166;9.978;2023-02-26T13:32:16;24.40;23.90
77277;DHT22;66330;52.166;9.978;2023-02-26T13:35:02;24.40;23.70
77277;DHT22;66330;52.166;9.978;2023-02-26T13:37:37;24.00;23.60
77277;DHT22;66330;52.166;9.978;2023-02-26T13:54:08;24.90;23.80
77277;DHT22;66330;52.166;9.978;2023-02-26T13:57:22;25.10;23.70
77277;DHT22;66330;52.166;9.978;2023-02-26T13:59:58;25.20;23.40
77277;DHT22;66330;52.166;9.978;2023-02-26T14:02:40;24.70;23.20
77277;DHT22;66330;52.166;9.978;2023-02-26T14:05:50;24.30;23.00
77277;DHT22;66330;52.166;9.978;2023-02-26T14:08:21;24.20;22.90
77277;DHT22;66330;52.166;9.978;2023-02-26T14:10:58;24.20;23.70
77277;DHT22;66330;52.166;9.978;2023-02-26T14:13:35;24.30;23.80
77277;DHT22;66330;52.166;9.978;2023-02-26T14:16:11;24.40;24.00
77277;DHT22;66330;52.166;9.978;2023-02-26T14:18:41;24.40;23.90
77277;DHT22;66330;52.166;9.978;2023-02-26T14:23:55;24.70;23.60
77277;DHT22;66330;52.166;9.978;2023-02-26T14:26:22;24.70;23.60
77277;DHT22;66330;52.166;9.978;2023-02-26T14:31:51;24.80;23.20
77277;DHT22;66330;52.166;9.978;2023-02-26T14:34:30;24.60;22.40
77277;DHT22;66330;52.166;9.978;2023-02-26T14:37:02;24.50;22.50
77277;DHT22;66330;52.166;9.978;2023-02-26T14:39:54;24.50;22.60
77277;DHT22;66330;52.166;9.978;2023-02-26T14:48:07;22.70;19.90
77277;DHT22;66330;52.166;9.978;2023-02-26T14:50:49;22.00;21.30
77277;DHT22;66330;52.166;9.978;2023-02-26T14:59:52;21.90;23.00
77277;DHT22;66330;52.166;9.978;2023-02-26T15:02:30;22.00;23.20
77277;DHT22;66330;52.166;9.978;2023-02-26T15:10:36;20.00;22.70
77277;DHT22;66330;52.166;9.978;2023-02-26T15:15:56;19.20;23.30
77277;DHT22;66330;52.166;9.978;2023-02-26T15:21:14;18.40;23.70
77277;DHT22;66330;52.166;9.978;2023-02-26T15:23:48;17.70;24.40
77277;DHT22;66330;52.166;9.978;2023-02-26T15:26:21;17.20;24.60
77277;DHT22;66330;52.166;9.978;2023-02-26T15:28:48;16.40;24.30
77277;DHT22;66330;52.166;9.978;2023-02-26T15:31:17;15.10;24.10
77277;DHT22;66330;52.166;9.978;2023-02-26T15:33:43;15.00;24.50
77277;DHT22;66330;52.166;9.978;2023-02-26T15:36:18;14.40;24.90
77277;DHT22;66330;52.166;9.978;2023-02-26T15:39:09;13.80;25.70
77277;DHT22;66330;52.166;9.978;2023-02-26T15:41:35;13.30;26.10
77277;DHT22;66330;52.166;9.978;2023-02-26T15:44:13;12.80;26.80
77277;DHT22;66330;52.166;9.978;2023-02-26T15:46:42;12.40;27.40
77277;DHT22;66330;52.166;9.978;2023-02-26T15:51:45;11.70;28.10
77277;DHT22;66330;52.166;9.978;2023-02-26T15:54:16;11.40;28.20
77277;DHT22;66330;52.166;9.978;2023-02-26T15:56:44;11.10;28.80
77277;DHT22;66330;52.166;9.978;2023-02-26T15:59:15;10.80;29.00
77277;DHT22;66330;52.166;9.978;2023-02-26T16:01:42;10.40;28.80
77277;DHT22;66330;52.166;9.978;2023-02-26T16:04:13;10.10;29.20
77277;DHT22;66330;52.166;9.978;2023-02-26T16:06:40;10.40;29.90
77277;DHT22;66330;52.166;9.978;2023-02-26T16:09:13;9.50;30.50
77277;DHT22;66330;52.166;9.978;2023-02-26T16:11:40;9.30;31.00
77277;DHT22;66330;52.166;9.978;2023-02-26T16:14:08;9.00;31.60
77277;DHT22;66330;52.166;9.978;2023-02-26T16:16:49;8.80;32.00
77277;DHT22;66330;52.166;9.978;2023-02-26T16:19:26;8.70;32.60
77277;DHT22;66330;52.166;9.978;2023-02-26T16:21:55;8.60;32.80
77277;DHT22;66330;52.166;9.978;2023-02-26T16:24:21;8.40;33.00
77277;DHT22;66330;52.166;9.978;2023-02-26T16:27:01;8.50;33.60
77277;DHT22;66330;52.166;9.978;2023-02-26T16:29:30;8.20;34.20
77277;DHT22;66330;52.166;9.978;2023-02-26T16:32:00;8.10;34.70
77277;DHT22;66330;52.166;9.978;2023-02-26T16:34:49;7.80;35.00
77277;DHT22;66330;52.166;9.978;2023-02-26T16:37:33;7.90;35.70
77277;DHT22;66330;52.166;9.978;2023-02-26T16:40:11;7.80;35.80
77277;DHT22;66330;52.166;9.978;2023-02-26T16:45:32;7.60;36.20
77277;DHT22;66330;52.166;9.978;2023-02-26T16:48:14;7.50;36.40
77277;DHT22;66330;52.166;9.978;2023-02-26T16:50:41;7.40;36.50
77277;DHT22;66330;52.166;9.978;2023-02-26T16:53:16;7.20;36.70
77277;DHT22;66330;52.166;9.978;2023-02-26T16:55:48;7.10;36.60
77277;DHT22;66330;52.166;9.978;2023-02-26T16:58:15;6.90;37.30
77277;DHT22;66330;52.166;9.978;2023-02-26T17:00:48;6.80;37.70
77277;DHT22;66330;52.166;9.978;2023-02-26T17:03:18;6.70;38.00
77277;DHT22;66330;52.166;9.978;2023-02-26T17:06:07;6.60;38.20
77277;DHT22;66330;52.166;9.978;2023-02-26T17:08:45;6.70;38.60
77277;DHT22;66330;52.166;9.978;2023-02-26T17:11:21;6.30;38.50
77277;DHT22;66330;52.166;9.978;2023-02-26T17:14:12;6.20;38.80
77277;DHT22;66330;52.166;9.978;2023-02-26T17:16:41;6.20;39.10
77277;DHT22;66330;52.166;9.978;2023-02-26T17:19:06;6.10;39.20
77277;DHT22;66330;52.166;9.978;2023-02-26T17:21:36;6.10;39.60
77277;DHT22;66330;52.166;9.978;2023-02-26T17:24:02;6.00;39.90
77277;DHT22;66330;52.166;9.978;2023-02-26T17:26:28;6.00;40.00
77277;DHT22;66330;52.166;9.978;2023-02-26T17:28:54;5.90;40.10
77277;DHT22;66330;52.166;9.978;2023-02-26T17:31:19;5.80;40.10
77277;DHT22;66330;52.166;9.978;2023-02-26T17:33:46;5.70;40.40
77277;DHT22;66330;52.166;9.978;2023-02-26T17:36:14;5.60;40.70
77277;DHT22;66330;52.166;9.978;2023-02-26T17:38:40;5.40;41.00
77277;DHT22;66330;52.166;9.978;2023-02-26T17:41:14;5.40;41.30
77277;DHT22;66330;52.166;9.978;2023-02-26T17:43:39;5.40;41.60
77277;DHT22;66330;52.166;9.978;2023-02-26T17:46:07;5.30;41.80
77277;DHT22;66330;52.166;9.978;2023-02-26T17:48:33;5.20;42.00
77277;DHT22;66330;52.166;9.978;2023-02-26T17:51:01;5.10;42.10
77277;DHT22;66330;52.166;9.978;2023-02-26T17:53:27;5.10;42.40
77277;DHT22;66330;52.166;9.978;2023-02-26T17:55:53;5.10;42.70
77277;DHT22;66330;52.166;9.978;2023-02-26T17:58:29;5.10;42.90
77277;DHT22;66330;52.166;9.978;2023-02-26T18:00:56;5.10;43.20
77277;DHT22;66330;52.166;9.978;2023-02-26T18:03:22;5.40;43.60
77277;DHT22;66330;52.166;9.978;2023-02-26T18:05:48;5.20;43.70
77277;DHT22;66330;52.166;9.978;2023-02-26T18:08:24;5.00;43.70
77277;DHT22;66330;52.166;9.978;2023-02-26T18:10:51;5.00;44.00
77277;DHT22;66330;52.166;9.978;2023-02-26T18:13:17;5.00;44.10
77277;DHT22;66330;52.166;9.978;2023-02-26T18:15:43;5.10;44.20
77277;DHT22;66330;52.166;9.978;2023-02-26T18:18:10;5.10;44.50
77277;DHT22;66330;52.166;9.978;2023-02-26T18:20:37;4.80;44.60
77277;DHT22;66330;52.166;9.978;2023-02-26T18:23:04;5.20;45.10
77277;DHT22;66330;52.166;9.978;2023-02-26T18:25:33;4.80;45.00
77277;DHT22;66330;52.166;9.978;2023-02-26T18:28:04;4.80;45.10
77277;DHT22;66330;52.166;9.978;2023-02-26T18:30:34;5.00;45.50
77277;DHT22;66330;52.166;9.978;2023-02-26T18:33:05;4.80;45.70
77277;DHT22;66330;52.166;9.978;2023-02-26T18:35:31;5.00;46.10
77277;DHT22;66330;52.166;9.978;2023-02-26T18:37:57;4.80;46.00
77277;DHT22;66330;52.166;9.978;2023-02-26T18:40:24;4.90;46.10
77277;DHT22;66330;52.166;9.978;2023-02-26T18:42:50;5.20;46.60
77277;DHT22;66330;52.166;9.978;2023-02-26T18:45:17;4.90;46.40
77277;DHT22;66330;52.166;9.978;2023-02-26T18:47:43;5.20;46.80
77277;DHT22;66330;52.166;9.978;2023-02-26T18:50:14;5.20;46.90
77277;DHT22;66330;52.166;9.978;2023-02-26T18:52:40;5.00;46.70